If you wish to contribute or participate in the discussions about articles you are invited to join SKYbrary as a registered user

 Actions

Gustavo Rojas Pinilla International Airport

From SKYbrary Wiki

SKSP
Airport
ICAO: SKSP – IATA: ADZ
Summary
Name Gustavo Rojas Pinilla International Airport
Region South America and Caribbean
Territory Colombia CO.gif
Location San Andres, Archipelago of San Andres, Providencia and Santa Catalina
Serving San Andres
Elevation 5.791 m
19 ft5.791 m
Coordinates 12° 35' 10.02" N, 81° 42' 7.77" W
Runways
Designator Length Width Surface ROPS
6/24 2380 m7,808.399 ft
45 m147.638 ft
ASP yes/yes


METAR
Observation SKSP 111000Z 08003KT 9999 FEW014 BKN200 26/23 A2981
Station San Andres Isla / Sesquicentenario
Date/Time 11 April 2019 10:00:00
Wind direction 80°
Wind speed 03 kts
Lowest cloud amount few clouds
Temperature 26°C
Dew point 23°C
Humidity 83%
QNH hPa
Weather condition n/a

Gustavo Rojas Pinilla International Airport is the main airport in the archipelago of San Andrés (Saint Andrew), Providencia and Santa Catalina, one of the departments of Colombia.

Climatology

Tropical monsoon climate (Köppen climate classification Am)

Maps

Terrain

Loading map...

Airport Layout

Loading map...


Accidents & Serious Incidents at or in vicinity of SKSP

None on SKYbrary